sensor_id;sensor_type;location;lat;lon;timestamp;temperature;humidity
18189;DHT22;9219;50.396;8.546;2022-08-18T00:02:02;21.60;99.90
18189;DHT22;9219;50.396;8.546;2022-08-18T00:09:03;21.70;99.90
18189;DHT22;9219;50.396;8.546;2022-08-18T00:11:34;21.70;99.90
18189;DHT22;9219;50.396;8.546;2022-08-18T00:14:10;21.60;99.90
18189;DHT22;9219;50.396;8.546;2022-08-18T00:16:50;21.60;99.90
18189;DHT22;9219;50.396;8.546;2022-08-18T00:19:19;21.70;99.90
18189;DHT22;9219;50.396;8.546;2022-08-18T00:22:07;21.60;99.90
18189;DHT22;9219;50.396;8.546;2022-08-18T00:24:42;21.50;99.90
18189;DHT22;9219;50.396;8.546;2022-08-18T00:31:28;21.50;99.90
18189;DHT22;9219;50.396;8.546;2022-08-18T00:33:57;21.40;99.90
18189;DHT22;9219;50.396;8.546;2022-08-18T00:36:25;21.30;99.90
18189;DHT22;9219;50.396;8.546;2022-08-18T00:38:57;21.20;99.90
18189;DHT22;9219;50.396;8.546;2022-08-18T00:41:46;21.10;99.90
18189;DHT22;9219;50.396;8.546;2022-08-18T00:44:13;21.10;99.90
18189;DHT22;9219;50.396;8.546;2022-08-18T00:49:25;21.00;99.90
18189;DHT22;9219;50.396;8.546;2022-08-18T00:51:53;21.10;99.90
18189;DHT22;9219;50.396;8.546;2022-08-18T00:54:24;21.10;99.90
18189;DHT22;9219;50.396;8.546;2022-08-18T00:56:57;21.10;99.90
18189;DHT22;9219;50.396;8.546;2022-08-18T00:59:30;21.10;99.90
18189;DHT22;9219;50.396;8.546;2022-08-18T01:02:04;21.20;99.90
18189;DHT22;9219;50.396;8.546;2022-08-18T01:04:38;21.20;99.90
18189;DHT22;9219;50.396;8.546;2022-08-18T01:12:14;21.20;99.90
18189;DHT22;9219;50.396;8.546;2022-08-18T01:15:02;21.30;99.90
18189;DHT22;9219;50.396;8.546;2022-08-18T01:17:30;21.30;99.90
18189;DHT22;9219;50.396;8.546;2022-08-18T01:20:20;21.50;99.90
18189;DHT22;9219;50.396;8.546;2022-08-18T01:23:11;21.40;99.90
18189;DHT22;9219;50.396;8.546;2022-08-18T01:25:40;21.40;99.90
18189;DHT22;9219;50.396;8.546;2022-08-18T01:31:06;21.30;99.90
18189;DHT22;9219;50.396;8.546;2022-08-18T01:33:39;21.40;99.90
18189;DHT22;9219;50.396;8.546;2022-08-18T01:36:10;21.50;99.90
18189;DHT22;9219;50.396;8.546;2022-08-18T01:38:42;21.40;99.90
18189;DHT22;9219;50.396;8.546;2022-08-18T01:41:11;21.30;99.90
18189;DHT22;9219;50.396;8.546;2022-08-18T01:43:55;21.30;99.90
18189;DHT22;9219;50.396;8.546;2022-08-18T01:46:25;21.40;99.90
18189;DHT22;9219;50.396;8.546;2022-08-18T01:53:22;21.50;99.90
18189;DHT22;9219;50.396;8.546;2022-08-18T01:55:52;21.50;99.90
18189;DHT22;9219;50.396;8.546;2022-08-18T01:58:21;21.60;99.90
18189;DHT22;9219;50.396;8.546;2022-08-18T02:00:58;21.60;99.90
18189;DHT22;9219;50.396;8.546;2022-08-18T02:03:30;21.50;99.90
18189;DHT22;9219;50.396;8.546;2022-08-18T02:06:02;21.50;99.90
18189;DHT22;9219;50.396;8.546;2022-08-18T02:11:12;21.50;99.90
18189;DHT22;9219;50.396;8.546;2022-08-18T02:13:40;21.60;99.90
18189;DHT22;9219;50.396;8.546;2022-08-18T02:16:08;21.70;99.90
18189;DHT22;9219;50.396;8.546;2022-08-18T02:18:36;22.00;99.90
18189;DHT22;9219;50.396;8.546;2022-08-18T02:21:18;22.20;99.90
18189;DHT22;9219;50.396;8.546;2022-08-18T02:23:47;22.20;99.90
18189;DHT22;9219;50.396;8.546;2022-08-18T02:26:21;22.30;99.90
18189;DHT22;9219;50.396;8.546;2022-08-18T02:33:53;22.60;99.90
18189;DHT22;9219;50.396;8.546;2022-08-18T02:36:21;22.60;99.90
18189;DHT22;9219;50.396;8.546;2022-08-18T02:38:51;22.50;99.90
18189;DHT22;9219;50.396;8.546;2022-08-18T02:41:26;22.30;99.90
18189;DHT22;9219;50.396;8.546;2022-08-18T02:43:56;22.10;99.90
18189;DHT22;9219;50.396;8.546;2022-08-18T02:46:24;21.90;99.90
18189;DHT22;9219;50.396;8.546;2022-08-18T02:48:58;21.80;99.90
18189;DHT22;9219;50.396;8.546;2022-08-18T02:56:23;21.30;99.90
18189;DHT22;9219;50.396;8.546;2022-08-18T02:59:09;21.10;99.90
18189;DHT22;9219;50.396;8.546;2022-08-18T03:01:40;21.00;99.90
18189;DHT22;9219;50.396;8.546;2022-08-18T03:04:11;21.10;99.90
18189;DHT22;9219;50.396;8.546;2022-08-18T03:06:40;21.00;99.90
18189;DHT22;9219;50.396;8.546;2022-08-18T03:09:11;20.90;99.90
18189;DHT22;9219;50.396;8.546;2022-08-18T03:11:40;20.90;99.90
18189;DHT22;9219;50.396;8.546;2022-08-18T03:18:49;20.70;99.90
18189;DHT22;9219;50.396;8.546;2022-08-18T03:21:19;20.70;99.90
18189;DHT22;9219;50.396;8.546;2022-08-18T03:23:47;20.60;99.90
18189;DHT22;9219;50.396;8.546;2022-08-18T03:26:28;20.60;99.90
18189;DHT22;9219;50.396;8.546;2022-08-18T03:28:59;20.60;99.90
18189;DHT22;9219;50.396;8.546;2022-08-18T03:31:29;20.50;99.90
18189;DHT22;9219;50.396;8.546;2022-08-18T03:33:59;20.50;99.90
18189;DHT22;9219;50.396;8.546;2022-08-18T03:36:48;20.50;99.90
18189;DHT22;9219;50.396;8.546;2022-08-18T03:39:17;20.70;99.90
18189;DHT22;9219;50.396;8.546;2022-08-18T03:41:46;20.70;99.90
18189;DHT22;9219;50.396;8.546;2022-08-18T03:44:28;20.70;99.90
18189;DHT22;9219;50.396;8.546;2022-08-18T03:46:57;20.70;99.90
18189;DHT22;9219;50.396;8.546;2022-08-18T03:49:25;20.70;99.90
18189;DHT22;9219;50.396;8.546;2022-08-18T03:51:54;20.70;99.90
18189;DHT22;9219;50.396;8.546;2022-08-18T03:58:59;21.10;99.90
18189;DHT22;9219;50.396;8.546;2022-08-18T04:01:30;21.50;99.90
18189;DHT22;9219;50.396;8.546;2022-08-18T04:04:00;21.70;99.90
18189;DHT22;9219;50.396;8.546;2022-08-18T04:06:31;21.80;99.90
18189;DHT22;9219;50.396;8.546;2022-08-18T04:09:02;21.90;99.90
18189;DHT22;9219;50.396;8.546;2022-08-18T04:11:31;22.00;99.90
18189;DHT22;9219;50.396;8.546;2022-08-18T04:14:04;22.10;99.90
18189;DHT22;9219;50.396;8.546;2022-08-18T04:21:38;22.00;99.90
18189;DHT22;9219;50.396;8.546;2022-08-18T04:24:08;21.80;99.90
18189;DHT22;9219;50.396;8.546;2022-08-18T04:26:38;22.00;99.90
18189;DHT22;9219;50.396;8.546;2022-08-18T04:29:07;22.30;99.90
18189;DHT22;9219;50.396;8.546;2022-08-18T04:31:35;22.50;99.90
18189;DHT22;9219;50.396;8.546;2022-08-18T04:34:03;22.20;99.90
18189;DHT22;9219;50.396;8.546;2022-08-18T04:36:32;22.20;99.90
18189;DHT22;9219;50.396;8.546;2022-08-18T04:44:06;22.20;99.90
18189;DHT22;9219;50.396;8.546;2022-08-18T04:46:39;21.90;99.90
18189;DHT22;9219;50.396;8.546;2022-08-18T04:49:08;21.90;99.90
18189;DHT22;9219;50.396;8.546;2022-08-18T04:51:39;22.10;99.90
18189;DHT22;9219;50.396;8.546;2022-08-18T04:54:27;22.40;99.90
18189;DHT22;9219;50.396;8.546;2022-08-18T04:56:54;22.60;99.90
18189;DHT22;9219;50.396;8.546;2022-08-18T04:59:23;22.50;99.90
18189;DHT22;9219;50.396;8.546;2022-08-18T05:06:51;22.50;99.90
18189;DHT22;9219;50.396;8.546;2022-08-18T05:09:20;22.40;99.90
18189;DHT22;9219;50.396;8.546;2022-08-18T05:11:49;22.30;99.90
18189;DHT22;9219;50.396;8.546;2022-08-18T05:14:17;22.30;99.90
18189;DHT22;9219;50.396;8.546;2022-08-18T05:16:45;22.40;99.90
18189;DHT22;9219;50.396;8.546;2022-08-18T05:19:18;22.40;99.90
18189;DHT22;9219;50.396;8.546;2022-08-18T05:21:53;22.60;99.90
18189;DHT22;9219;50.396;8.546;2022-08-18T05:29:31;22.80;99.90
18189;DHT22;9219;50.396;8.546;2022-08-18T05:32:07;22.70;99.90
18189;DHT22;9219;50.396;8.546;2022-08-18T05:34:55;22.70;99.90
18189;DHT22;9219;50.396;8.546;2022-08-18T05:37:29;22.70;99.90
18189;DHT22;9219;50.396;8.546;2022-08-18T05:40:04;22.70;99.90
18189;DHT22;9219;50.396;8.546;2022-08-18T05:42:39;22.80;99.90
18189;DHT22;9219;50.396;8.546;2022-08-18T05:45:13;22.70;99.90
18189;DHT22;9219;50.396;8.546;2022-08-18T05:47:57;22.80;99.90
18189;DHT22;9219;50.396;8.546;2022-08-18T05:50:27;22.70;99.90
18189;DHT22;9219;50.396;8.546;2022-08-18T05:52:58;22.80;99.90
18189;DHT22;9219;50.396;8.546;2022-08-18T05:55:32;22.70;99.90
18189;DHT22;9219;50.396;8.546;2022-08-18T05:58:22;22.70;99.90
18189;DHT22;9219;50.396;8.546;2022-08-18T06:01:03;22.60;99.90
18189;DHT22;9219;50.396;8.546;2022-08-18T06:03:35;22.60;99.90
18189;DHT22;9219;50.396;8.546;2022-08-18T06:11:12;22.60;99.90
18189;DHT22;9219;50.396;8.546;2022-08-18T06:13:49;22.70;99.90
18189;DHT22;9219;50.396;8.546;2022-08-18T06:16:31;22.60;99.90
18189;DHT22;9219;50.396;8.546;2022-08-18T06:19:09;22.60;99.90
18189;DHT22;9219;50.396;8.546;2022-08-18T06:21:45;22.50;99.90
18189;DHT22;9219;50.396;8.546;2022-08-18T06:24:23;22.50;99.90
18189;DHT22;9219;50.396;8.546;2022-08-18T06:33:04;22.70;99.90
18189;DHT22;9219;50.396;8.546;2022-08-18T06:35:36;22.60;99.90
18189;DHT22;9219;50.396;8.546;2022-08-18T06:38:16;22.40;99.90
18189;DHT22;9219;50.396;8.546;2022-08-18T06:41:08;22.40;99.90
18189;DHT22;9219;50.396;8.546;2022-08-18T06:43:59;22.50;99.90
18189;DHT22;9219;50.396;8.546;2022-08-18T06:46:33;22.50;99.90
18189;DHT22;9219;50.396;8.546;2022-08-18T06:54:25;22.30;99.90
18189;DHT22;9219;50.396;8.546;2022-08-18T06:56:55;22.20;99.90
18189;DHT22;9219;50.396;8.546;2022-08-18T06:59:26;22.20;99.90
18189;DHT22;9219;50.396;8.546;2022-08-18T07:01:57;22.00;99.90
18189;DHT22;9219;50.396;8.546;2022-08-18T07:04:36;21.90;99.90
18189;DHT22;9219;50.396;8.546;2022-08-18T07:07:14;21.80;99.90
18189;DHT22;9219;50.396;8.546;2022-08-18T07:09:43;21.40;99.90
18189;DHT22;9219;50.396;8.546;2022-08-18T07:16:35;21.30;99.90
18189;DHT22;9219;50.396;8.546;2022-08-18T07:19:27;21.40;99.90
18189;DHT22;9219;50.396;8.546;2022-08-18T07:22:01;21.40;99.90
18189;DHT22;9219;50.396;8.546;2022-08-18T07:24:33;21.40;99.90
18189;DHT22;9219;50.396;8.546;2022-08-18T07:27:03;21.30;99.90
18189;DHT22;9219;50.396;8.546;2022-08-18T07:29:37;21.10;99.90
18189;DHT22;9219;50.396;8.546;2022-08-18T07:35:06;20.80;99.90
18189;DHT22;9219;50.396;8.546;2022-08-18T07:37:39;20.80;99.90
18189;DHT22;9219;50.396;8.546;2022-08-18T07:40:17;20.80;99.90
18189;DHT22;9219;50.396;8.546;2022-08-18T07:42:50;21.00;99.90
18189;DHT22;9219;50.396;8.546;2022-08-18T07:45:32;21.10;99.90
18189;DHT22;9219;50.396;8.546;2022-08-18T07:48:06;21.30;99.90
18189;DHT22;9219;50.396;8.546;2022-08-18T07:53:48;21.20;99.90
18189;DHT22;9219;50.396;8.546;2022-08-18T07:56:32;20.90;99.90
18189;DHT22;9219;50.396;8.546;2022-08-18T07:59:08;20.90;99.90
18189;DHT22;9219;50.396;8.546;2022-08-18T08:01:42;21.30;99.90
18189;DHT22;9219;50.396;8.546;2022-08-18T08:04:15;21.50;99.90
18189;DHT22;9219;50.396;8.546;2022-08-18T08:06:56;21.40;99.90
18189;DHT22;9219;50.396;8.546;2022-08-18T08:13:05;21.10;99.90
18189;DHT22;9219;50.396;8.546;2022-08-18T08:15:42;21.00;99.90
18189;DHT22;9219;50.396;8.546;2022-08-18T08:18:19;21.10;99.90
18189;DHT22;9219;50.396;8.546;2022-08-18T08:20:53;21.10;99.90
18189;DHT22;9219;50.396;8.546;2022-08-18T08:23:32;21.20;99.90
18189;DHT22;9219;50.396;8.546;2022-08-18T08:26:23;21.20;99.90
18189;DHT22;9219;50.396;8.546;2022-08-18T08:32:13;21.40;99.90
18189;DHT22;9219;50.396;8.546;2022-08-18T08:34:48;21.40;99.90
18189;DHT22;9219;50.396;8.546;2022-08-18T08:37:20;21.50;99.90
18189;DHT22;9219;50.396;8.546;2022-08-18T08:39:51;21.50;99.90
18189;DHT22;9219;50.396;8.546;2022-08-18T08:42:30;21.70;99.90
18189;DHT22;9219;50.396;8.546;2022-08-18T08:45:10;22.00;99.90
18189;DHT22;9219;50.396;8.546;2022-08-18T08:53:33;22.20;99.90
18189;DHT22;9219;50.396;8.546;2022-08-18T08:56:05;22.30;99.90
18189;DHT22;9219;50.396;8.546;2022-08-18T08:58:36;22.30;99.90
18189;DHT22;9219;50.396;8.546;2022-08-18T09:01:11;22.20;99.90
18189;DHT22;9219;50.396;8.546;2022-08-18T09:03:48;22.20;99.90
18189;DHT22;9219;50.396;8.546;2022-08-18T09:06:28;22.20;99.90
18189;DHT22;9219;50.396;8.546;2022-08-18T09:09:40;22.30;99.90
18189;DHT22;9219;50.396;8.546;2022-08-18T09:17:39;22.60;99.90
18189;DHT22;9219;50.396;8.546;2022-08-18T09:20:33;22.80;99.90
18189;DHT22;9219;50.396;8.546;2022-08-18T09:23:06;22.90;99.90
18189;DHT22;9219;50.396;8.546;2022-08-18T09:25:46;22.80;99.90
18189;DHT22;9219;50.396;8.546;2022-08-18T09:28:16;22.90;99.90
18189;DHT22;9219;50.396;8.546;2022-08-18T09:30:50;22.90;99.90
18189;DHT22;9219;50.396;8.546;2022-08-18T09:36:39;22.80;99.90
18189;DHT22;9219;50.396;8.546;2022-08-18T09:39:20;22.90;99.90
18189;DHT22;9219;50.396;8.546;2022-08-18T09:42:09;22.80;99.90
18189;DHT22;9219;50.396;8.546;2022-08-18T09:45:00;22.20;99.90
18189;DHT22;9219;50.396;8.546;2022-08-18T09:48:02;22.30;99.90
18189;DHT22;9219;50.396;8.546;2022-08-18T09:51:35;22.50;99.90
18189;DHT22;9219;50.396;8.546;2022-08-18T09:57:18;22.70;99.90
18189;DHT22;9219;50.396;8.546;2022-08-18T09:59:52;23.00;99.90
18189;DHT22;9219;50.396;8.546;2022-08-18T10:05:35;23.00;99.90
18189;DHT22;9219;50.396;8.546;2022-08-18T10:11:25;23.30;99.90
18189;DHT22;9219;50.396;8.546;2022-08-18T10:14:17;23.40;99.90
18189;DHT22;9219;50.396;8.546;2022-08-18T10:22:38;23.60;99.90
18189;DHT22;9219;50.396;8.546;2022-08-18T10:25:08;23.60;99.90
18189;DHT22;9219;50.396;8.546;2022-08-18T10:27:52;23.70;99.90
18189;DHT22;9219;50.396;8.546;2022-08-18T10:30:59;23.80;99.90
18189;DHT22;9219;50.396;8.546;2022-08-18T10:34:00;23.80;99.90
18189;DHT22;9219;50.396;8.546;2022-08-18T10:36:47;23.70;99.90
18189;DHT22;9219;50.396;8.546;2022-08-18T10:45:11;23.90;99.90
18189;DHT22;9219;50.396;8.546;2022-08-18T10:47:58;23.80;99.90
18189;DHT22;9219;50.396;8.546;2022-08-18T10:50:28;23.90;99.90
18189;DHT22;9219;50.396;8.546;2022-08-18T10:53:05;24.00;99.90
18189;DHT22;9219;50.396;8.546;2022-08-18T10:55:59;24.00;99.90
18189;DHT22;9219;50.396;8.546;2022-08-18T10:58:43;23.90;99.90
18189;DHT22;9219;50.396;8.546;2022-08-18T11:06:46;23.90;99.90
18189;DHT22;9219;50.396;8.546;2022-08-18T11:09:22;24.00;99.90
18189;DHT22;9219;50.396;8.546;2022-08-18T11:11:54;24.10;99.90
18189;DHT22;9219;50.396;8.546;2022-08-18T11:15:00;24.10;99.90
18189;DHT22;9219;50.396;8.546;2022-08-18T11:18:04;24.20;99.90
18189;DHT22;9219;50.396;8.546;2022-08-18T11:20:36;24.20;99.90
18189;DHT22;9219;50.396;8.546;2022-08-18T11:27:49;24.10;99.90
18189;DHT22;9219;50.396;8.546;2022-08-18T11:30:19;24.10;99.90
18189;DHT22;9219;50.396;8.546;2022-08-18T11:32:57;24.10;99.90
18189;DHT22;9219;50.396;8.546;2022-08-18T11:35:30;24.10;99.90
18189;DHT22;9219;50.396;8.546;2022-08-18T11:38:02;24.10;99.90
18189;DHT22;9219;50.396;8.546;2022-08-18T11:40:36;24.20;99.90
18189;DHT22;9219;50.396;8.546;2022-08-18T11:46:29;24.10;99.90
18189;DHT22;9219;50.396;8.546;2022-08-18T11:48:59;24.60;99.90
18189;DHT22;9219;50.396;8.546;2022-08-18T11:51:30;24.70;99.90
18189;DHT22;9219;50.396;8.546;2022-08-18T11:54:00;24.60;99.90
18189;DHT22;9219;50.396;8.546;2022-08-18T11:56:29;24.60;99.90
18189;DHT22;9219;50.396;8.546;2022-08-18T11:59:05;24.50;99.90
18189;DHT22;9219;50.396;8.546;2022-08-18T12:04:38;24.80;99.90
18189;DHT22;9219;50.396;8.546;2022-08-18T12:07:10;24.60;99.90
18189;DHT22;9219;50.396;8.546;2022-08-18T12:09:41;24.50;99.90
18189;DHT22;9219;50.396;8.546;2022-08-18T12:12:30;24.50;99.90
18189;DHT22;9219;50.396;8.546;2022-08-18T12:15:05;24.30;99.90
18189;DHT22;9219;50.396;8.546;2022-08-18T12:17:55;24.30;99.90
18189;DHT22;9219;50.396;8.546;2022-08-18T12:20:24;24.30;99.90
18189;DHT22;9219;50.396;8.546;2022-08-18T12:22:55;24.50;99.90
18189;DHT22;9219;50.396;8.546;2022-08-18T12:30:28;24.70;99.90
18189;DHT22;9219;50.396;8.546;2022-08-18T12:32:58;24.90;99.90
18189;DHT22;9219;50.396;8.546;2022-08-18T12:35:31;25.00;99.90
18189;DHT22;9219;50.396;8.546;2022-08-18T12:38:01;25.20;99.90
18189;DHT22;9219;50.396;8.546;2022-08-18T12:40:41;25.40;99.90
18189;DHT22;9219;50.396;8.546;2022-08-18T12:43:10;25.40;99.90
18189;DHT22;9219;50.396;8.546;2022-08-18T12:45:41;25.40;99.90
18189;DHT22;9219;50.396;8.546;2022-08-18T12:53:11;25.60;99.90
18189;DHT22;9219;50.396;8.546;2022-08-18T12:55:43;25.50;99.90
18189;DHT22;9219;50.396;8.546;2022-08-18T12:58:12;25.60;99.90
18189;DHT22;9219;50.396;8.546;2022-08-18T13:00:41;26.10;99.90
18189;DHT22;9219;50.396;8.546;2022-08-18T13:03:08;26.20;99.90
18189;DHT22;9219;50.396;8.546;2022-08-18T13:05:36;26.20;99.90
18189;DHT22;9219;50.396;8.546;2022-08-18T13:08:08;26.30;99.90
18189;DHT22;9219;50.396;8.546;2022-08-18T13:15:53;26.60;99.90
18189;DHT22;9219;50.396;8.546;2022-08-18T13:18:25;27.00;99.90
18189;DHT22;9219;50.396;8.546;2022-08-18T13:20:55;27.00;99.90
18189;DHT22;9219;50.396;8.546;2022-08-18T13:23:25;27.00;99.90
18189;DHT22;9219;50.396;8.546;2022-08-18T13:25:53;27.20;99.90
18189;DHT22;9219;50.396;8.546;2022-08-18T13:28:29;27.10;99.90
18189;DHT22;9219;50.396;8.546;2022-08-18T13:31:03;27.40;99.90
18189;DHT22;9219;50.396;8.546;2022-08-18T13:38:36;27.50;99.90
18189;DHT22;9219;50.396;8.546;2022-08-18T13:41:10;27.60;99.90
18189;DHT22;9219;50.396;8.546;2022-08-18T13:43:43;27.60;99.90
18189;DHT22;9219;50.396;8.546;2022-08-18T13:46:15;27.70;99.90
18189;DHT22;9219;50.396;8.546;2022-08-18T13:48:45;27.10;99.90
18189;DHT22;9219;50.396;8.546;2022-08-18T13:51:17;27.40;99.90
18189;DHT22;9219;50.396;8.546;2022-08-18T13:53:49;27.30;99.90
18189;DHT22;9219;50.396;8.546;2022-08-18T14:00:34;26.80;99.90
18189;DHT22;9219;50.396;8.546;2022-08-18T14:03:04;26.90;99.90
18189;DHT22;9219;50.396;8.546;2022-08-18T14:05:34;27.20;99.90
18189;DHT22;9219;50.396;8.546;2022-08-18T14:08:18;27.20;99.90
18189;DHT22;9219;50.396;8.546;2022-08-18T14:10:50;27.40;99.90
18189;DHT22;9219;50.396;8.546;2022-08-18T14:13:20;27.20;99.90
18189;DHT22;9219;50.396;8.546;2022-08-18T14:15:54;27.30;99.90
18189;DHT22;9219;50.396;8.546;2022-08-18T14:21:29;26.90;99.90
18189;DHT22;9219;50.396;8.546;2022-08-18T14:24:17;26.90;99.90
18189;DHT22;9219;50.396;8.546;2022-08-18T14:27:04;27.00;99.90
18189;DHT22;9219;50.396;8.546;2022-08-18T14:29:35;27.10;99.90
18189;DHT22;9219;50.396;8.546;2022-08-18T14:32:18;27.40;99.90
18189;DHT22;9219;50.396;8.546;2022-08-18T14:34:55;27.40;99.90
18189;DHT22;9219;50.396;8.546;2022-08-18T14:37:28;27.40;99.90
18189;DHT22;9219;50.396;8.546;2022-08-18T14:44:28;27.30;99.90
18189;DHT22;9219;50.396;8.546;2022-08-18T14:46:58;26.70;99.90
18189;DHT22;9219;50.396;8.546;2022-08-18T14:49:26;26.40;99.90
18189;DHT22;9219;50.396;8.546;2022-08-18T14:51:57;26.00;99.90
18189;DHT22;9219;50.396;8.546;2022-08-18T14:54:27;26.00;99.90
18189;DHT22;9219;50.396;8.546;2022-08-18T14:56:56;26.30;99.90
18189;DHT22;9219;50.396;8.546;2022-08-18T14:59:25;26.30;99.90
18189;DHT22;9219;50.396;8.546;2022-08-18T15:06:54;26.30;99.90
18189;DHT22;9219;50.396;8.546;2022-08-18T15:09:24;26.00;99.90
18189;DHT22;9219;50.396;8.546;2022-08-18T15:11:54;25.90;99.90
18189;DHT22;9219;50.396;8.546;2022-08-18T15:14:24;25.80;99.90
18189;DHT22;9219;50.396;8.546;2022-08-18T15:17:00;25.70;99.90
18189;DHT22;9219;50.396;8.546;2022-08-18T15:19:40;25.70;99.90
18189;DHT22;9219;50.396;8.546;2022-08-18T15:22:29;25.90;99.90
18189;DHT22;9219;50.396;8.546;2022-08-18T15:28:08;26.00;99.90
18189;DHT22;9219;50.396;8.546;2022-08-18T15:30:43;26.10;99.90
18189;DHT22;9219;50.396;8.546;2022-08-18T15:33:17;26.30;99.90
18189;DHT22;9219;50.396;8.546;2022-08-18T15:35:51;26.20;99.90
18189;DHT22;9219;50.396;8.546;2022-08-18T15:38:22;26.40;99.90
18189;DHT22;9219;50.396;8.546;2022-08-18T15:40:55;26.50;99.90
18189;DHT22;9219;50.396;8.546;2022-08-18T15:43:27;26.10;99.90
18189;DHT22;9219;50.396;8.546;2022-08-18T15:48:54;25.80;99.90
18189;DHT22;9219;50.396;8.546;2022-08-18T15:51:22;25.60;99.90
18189;DHT22;9219;50.396;8.546;2022-08-18T15:53:51;25.50;99.90
18189;DHT22;9219;50.396;8.546;2022-08-18T15:56:24;25.80;99.90
18189;DHT22;9219;50.396;8.546;2022-08-18T15:58:54;25.90;99.90
18189;DHT22;9219;50.396;8.546;2022-08-18T16:01:26;25.90;99.90
18189;DHT22;9219;50.396;8.546;2022-08-18T16:03:59;25.90;99.90
18189;DHT22;9219;50.396;8.546;2022-08-18T16:11:36;26.10;99.90
18189;DHT22;9219;50.396;8.546;2022-08-18T16:14:05;26.00;99.90
18189;DHT22;9219;50.396;8.546;2022-08-18T16:16:35;25.90;99.90
18189;DHT22;9219;50.396;8.546;2022-08-18T16:19:06;25.60;99.90
18189;DHT22;9219;50.396;8.546;2022-08-18T16:21:34;25.60;99.90
18189;DHT22;9219;50.396;8.546;2022-08-18T16:24:06;25.70;99.90
18189;DHT22;9219;50.396;8.546;2022-08-18T16:26:38;25.90;99.90
18189;DHT22;9219;50.396;8.546;2022-08-18T16:31:48;25.80;99.90
18189;DHT22;9219;50.396;8.546;2022-08-18T16:34:17;25.90;99.90
18189;DHT22;9219;50.396;8.546;2022-08-18T16:36:46;25.80;99.90
18189;DHT22;9219;50.396;8.546;2022-08-18T16:39:18;25.80;99.90
18189;DHT22;9219;50.396;8.546;2022-08-18T16:41:47;25.50;99.90
18189;DHT22;9219;50.396;8.546;2022-08-18T16:44:16;25.30;99.90
18189;DHT22;9219;50.396;8.546;2022-08-18T16:47:03;25.50;99.90
18189;DHT22;9219;50.396;8.546;2022-08-18T16:54:31;25.00;99.90
18189;DHT22;9219;50.396;8.546;2022-08-18T16:56:59;24.60;99.90
18189;DHT22;9219;50.396;8.546;2022-08-18T16:59:27;24.60;99.90
18189;DHT22;9219;50.396;8.546;2022-08-18T17:02:14;24.50;99.90
18189;DHT22;9219;50.396;8.546;2022-08-18T17:04:56;24.50;99.90
18189;DHT22;9219;50.396;8.546;2022-08-18T17:07:30;24.80;99.90
18189;DHT22;9219;50.396;8.546;2022-08-18T17:10:05;24.90;99.90
18189;DHT22;9219;50.396;8.546;2022-08-18T17:15:14;25.30;99.90
18189;DHT22;9219;50.396;8.546;2022-08-18T17:17:41;25.10;99.90
18189;DHT22;9219;50.396;8.546;2022-08-18T17:20:11;25.10;99.90
18189;DHT22;9219;50.396;8.546;2022-08-18T17:22:43;25.10;99.90
18189;DHT22;9219;50.396;8.546;2022-08-18T17:25:15;25.30;99.90
18189;DHT22;9219;50.396;8.546;2022-08-18T17:27:50;25.60;99.90
18189;DHT22;9219;50.396;8.546;2022-08-18T17:30:21;25.50;99.90
18189;DHT22;9219;50.396;8.546;2022-08-18T17:38:00;25.00;99.90
18189;DHT22;9219;50.396;8.546;2022-08-18T17:40:36;24.80;99.90
18189;DHT22;9219;50.396;8.546;2022-08-18T17:43:09;24.80;99.90
18189;DHT22;9219;50.396;8.546;2022-08-18T17:45:39;24.80;99.90
18189;DHT22;9219;50.396;8.546;2022-08-18T17:48:11;24.80;99.90
18189;DHT22;9219;50.396;8.546;2022-08-18T17:50:46;24.60;99.90
18189;DHT22;9219;50.396;8.546;2022-08-18T17:53:34;24.20;99.90
18189;DHT22;9219;50.396;8.546;2022-08-18T18:01:10;23.90;99.90
18189;DHT22;9219;50.396;8.546;2022-08-18T18:03:42;24.00;99.90
18189;DHT22;9219;50.396;8.546;2022-08-18T18:06:20;24.00;99.90
18189;DHT22;9219;50.396;8.546;2022-08-18T18:08:59;23.80;99.90
18189;DHT22;9219;50.396;8.546;2022-08-18T18:11:32;23.70;99.90
18189;DHT22;9219;50.396;8.546;2022-08-18T18:14:21;23.70;99.90
18189;DHT22;9219;50.396;8.546;2022-08-18T18:22:06;23.80;99.90
18189;DHT22;9219;50.396;8.546;2022-08-18T18:24:38;24.00;99.90
18189;DHT22;9219;50.396;8.546;2022-08-18T18:27:28;24.00;99.90
18189;DHT22;9219;50.396;8.546;2022-08-18T18:30:05;23.90;99.90
18189;DHT22;9219;50.396;8.546;2022-08-18T18:32:54;23.90;99.90
18189;DHT22;9219;50.396;8.546;2022-08-18T18:35:27;24.00;99.90
18189;DHT22;9219;50.396;8.546;2022-08-18T18:43:49;24.00;99.90
18189;DHT22;9219;50.396;8.546;2022-08-18T18:46:27;23.90;99.90
18189;DHT22;9219;50.396;8.546;2022-08-18T18:49:09;24.00;99.90
18189;DHT22;9219;50.396;8.546;2022-08-18T18:51:53;24.30;99.90
18189;DHT22;9219;50.396;8.546;2022-08-18T18:54:38;24.50;99.90
18189;DHT22;9219;50.396;8.546;2022-08-18T18:57:22;24.50;99.90
18189;DHT22;9219;50.396;8.546;2022-08-18T19:00:07;24.80;99.90
18189;DHT22;9219;50.396;8.546;2022-08-18T19:10:44;24.90;99.90
18189;DHT22;9219;50.396;8.546;2022-08-18T19:13:20;24.80;99.90
18189;DHT22;9219;50.396;8.546;2022-08-18T19:16:09;24.50;99.90
18189;DHT22;9219;50.396;8.546;2022-08-18T19:18:54;24.50;99.90
18189;DHT22;9219;50.396;8.546;2022-08-18T19:21:57;24.40;99.90
18189;DHT22;9219;50.396;8.546;2022-08-18T19:24:38;24.10;99.90
18189;DHT22;9219;50.396;8.546;2022-08-18T19:27:22;24.10;99.90
18189;DHT22;9219;50.396;8.546;2022-08-18T19:34:59;23.80;99.90
18189;DHT22;9219;50.396;8.546;2022-08-18T19:37:58;23.50;99.90
18189;DHT22;9219;50.396;8.546;2022-08-18T19:40:40;23.30;99.90
18189;DHT22;9219;50.396;8.546;2022-08-18T19:43:19;23.10;99.90
18189;DHT22;9219;50.396;8.546;2022-08-18T19:45:58;22.90;99.90
18189;DHT22;9219;50.396;8.546;2022-08-18T19:48:37;22.80;99.90
18189;DHT22;9219;50.396;8.546;2022-08-18T19:51:15;22.80;99.90
18189;DHT22;9219;50.396;8.546;2022-08-18T19:57:02;22.70;99.90
18189;DHT22;9219;50.396;8.546;2022-08-18T19:59:56;22.70;99.90
18189;DHT22;9219;50.396;8.546;2022-08-18T20:02:43;22.70;99.90
18189;DHT22;9219;50.396;8.546;2022-08-18T20:05:22;22.60;99.90
18189;DHT22;9219;50.396;8.546;2022-08-18T20:11:18;22.80;99.90
18189;DHT22;9219;50.396;8.546;2022-08-18T20:18:54;22.90;99.90
18189;DHT22;9219;50.396;8.546;2022-08-18T20:21:40;23.00;99.90
18189;DHT22;9219;50.396;8.546;2022-08-18T20:27:15;22.70;99.90
18189;DHT22;9219;50.396;8.546;2022-08-18T20:30:01;22.60;99.90
18189;DHT22;9219;50.396;8.546;2022-08-18T20:32:33;22.40;99.90
18189;DHT22;9219;50.396;8.546;2022-08-18T20:35:19;22.30;99.90
18189;DHT22;9219;50.396;8.546;2022-08-18T20:43:24;22.50;99.90
18189;DHT22;9219;50.396;8.546;2022-08-18T20:46:02;22.60;99.90
18189;DHT22;9219;50.396;8.546;2022-08-18T20:48:48;22.80;99.90
18189;DHT22;9219;50.396;8.546;2022-08-18T20:51:23;22.80;99.90
18189;DHT22;9219;50.396;8.546;2022-08-18T20:54:05;22.90;99.90
18189;DHT22;9219;50.396;8.546;2022-08-18T20:56:45;23.10;99.90
18189;DHT22;9219;50.396;8.546;2022-08-18T20:59:19;23.20;99.90
18189;DHT22;9219;50.396;8.546;2022-08-18T21:06:58;23.20;99.90